Time;durP1;ratioP1;P1;durP2;ratioP2;P2;SDS_P1;SDS_P2;PMS_P1;PMS_P2;Temp;Humidity;BMP_temperature;BMP_pressure;BME280_temperature;BME280_humidity;BME280_pressure;Samples;Min_cycle;Max_cycle;Signal;HPM_P1;HPM_P2
2024/03/23 00:01:03;;;;;;;;;;;20.50;47.90;;;;;;1554553;75;736;-70
2024/03/23 00:03:05;;;;;;;;;;;20.40;47.80;;;;;;1557130;76;681;-69
2024/03/23 00:05:08;;;;;;;;;;;20.50;47.90;;;;;;1548705;75;1106;-71
2024/03/23 00:07:10;;;;;;;;;;;20.50;47.90;;;;;;1550513;75;807;-70
2024/03/23 00:09:12;;;;;;;;;;;20.40;47.80;;;;;;1535256;76;746;-71
2024/03/23 00:11:15;;;;;;;;;;;20.50;48.00;;;;;;1552087;75;1928;-68
2024/03/23 00:13:17;;;;;;;;;;;20.40;47.80;;;;;;1551244;75;749;-69
2024/03/23 00:15:20;;;;;;;;;;;20.40;47.90;;;;;;1551327;75;1153;-69
2024/03/23 00:17:22;;;;;;;;;;;20.50;48.00;;;;;;1552926;76;792;-69
2024/03/23 00:19:24;;;;;;;;;;;20.40;47.90;;;;;;1552873;75;920;-70
2024/03/23 00:21:27;;;;;;;;;;;20.40;48.00;;;;;;1541848;75;780;-70
2024/03/23 00:23:29;;;;;;;;;;;20.40;47.90;;;;;;1548219;76;773;-69
2024/03/23 00:25:31;;;;;;;;;;;20.40;48.00;;;;;;1547497;76;1133;-68
2024/03/23 00:27:34;;;;;;;;;;;20.50;48.10;;;;;;1557812;75;785;-69
2024/03/23 00:29:36;;;;;;;;;;;20.40;48.00;;;;;;1547891;76;800;-72
2024/03/23 00:31:40;;;;;;;;;;;20.50;48.10;;;;;;1549658;75;1946;-74
2024/03/23 00:33:43;;;;;;;;;;;20.40;48.10;;;;;;1561279;75;775;-72
2024/03/23 00:35:45;;;;;;;;;;;20.40;48.10;;;;;;1557584;75;1082;-71
2024/03/23 00:37:47;;;;;;;;;;;20.50;48.20;;;;;;1547492;75;919;-68
2024/03/23 00:39:50;;;;;;;;;;;20.40;48.10;;;;;;1555232;76;682;-71
2024/03/23 00:41:52;;;;;;;;;;;20.40;48.10;;;;;;1550878;75;750;-70
2024/03/23 00:43:55;;;;;;;;;;;20.50;48.20;;;;;;1560733;75;793;-70
2024/03/23 00:45:57;;;;;;;;;;;20.40;48.10;;;;;;1554765;75;1127;-70
2024/03/23 00:47:59;;;;;;;;;;;20.40;48.10;;;;;;1551662;75;706;-68
2024/03/23 00:50:02;;;;;;;;;;;20.40;48.20;;;;;;1544834;76;1930;-68
2024/03/23 00:52:04;;;;;;;;;;;20.40;48.20;;;;;;1542300;75;775;-71
2024/03/23 00:54:06;;;;;;;;;;;20.50;48.30;;;;;;1542617;76;1173;-70
2024/03/23 00:56:08;;;;;;;;;;;20.40;48.20;;;;;;1557384;76;754;-73
2024/03/23 00:58:09;;;;;;;;;;;20.40;48.30;;;;;;1555792;75;684;-70
2024/03/23 01:00:12;;;;;;;;;;;20.40;48.30;;;;;;1544387;75;754;-70
2024/03/23 01:02:14;;;;;;;;;;;20.40;48.30;;;;;;1542428;75;755;-71
2024/03/23 01:04:16;;;;;;;;;;;20.40;48.40;;;;;;1542573;76;1103;-69
2024/03/23 01:06:17;;;;;;;;;;;20.40;48.40;;;;;;1544281;75;789;-69
2024/03/23 01:08:19;;;;;;;;;;;20.40;48.40;;;;;;1546287;75;739;-71
2024/03/23 01:10:21;;;;;;;;;;;20.40;48.40;;;;;;1553845;76;1927;-71
2024/03/23 01:12:23;;;;;;;;;;;20.50;48.50;;;;;;1547529;76;703;-74
2024/03/23 01:14:25;;;;;;;;;;;20.40;48.40;;;;;;1552166;75;1168;-71
2024/03/23 01:16:27;;;;;;;;;;;20.40;48.40;;;;;;1546280;75;735;-70
2024/03/23 01:18:29;;;;;;;;;;;20.40;48.40;;;;;;1551238;75;812;-71
2024/03/23 01:20:31;;;;;;;;;;;20.40;48.40;;;;;;1554107;75;737;-70
2024/03/23 01:22:33;;;;;;;;;;;20.40;48.40;;;;;;1536759;75;776;-72
2024/03/23 01:24:35;;;;;;;;;;;20.40;48.40;;;;;;1551281;75;1171;-71
2024/03/23 01:26:37;;;;;;;;;;;20.40;48.40;;;;;;1557567;76;683;-71
2024/03/23 01:28:39;;;;;;;;;;;20.30;48.50;;;;;;1555211;76;825;-72
2024/03/23 01:30:41;;;;;;;;;;;20.40;48.50;;;;;;1556800;76;1912;-72
2024/03/23 01:32:43;;;;;;;;;;;20.40;48.50;;;;;;1547935;76;949;-71
2024/03/23 01:34:45;;;;;;;;;;;20.40;48.50;;;;;;1546934;75;1152;-71
2024/03/23 01:36:47;;;;;;;;;;;20.40;48.40;;;;;;1532637;76;782;-71
2024/03/23 01:38:49;;;;;;;;;;;20.30;48.50;;;;;;1560453;75;652;-71
2024/03/23 01:40:52;;;;;;;;;;;20.40;48.50;;;;;;1554491;76;813;-69
2024/03/23 01:43:12;;;;;;;;;;;20.40;48.50;;;;;;1544515;75;1916;-70
2024/03/23 01:45:11;;;;;;;;;;;20.40;48.50;;;;;;1548158;75;1177;-70
2024/03/23 01:47:13;;;;;;;;;;;20.40;48.60;;;;;;1558411;75;780;-71
2024/03/23 01:49:14;;;;;;;;;;;20.50;48.60;;;;;;1549162;75;750;-71
2024/03/23 01:51:16;;;;;;;;;;;20.40;48.60;;;;;;1553534;75;1922;-69
2024/03/23 01:53:21;;;;;;;;;;;20.30;48.60;;;;;;1544928;76;715;-71
2024/03/23 01:55:22;;;;;;;;;;;20.40;48.60;;;;;;1545272;75;1753;-69
2024/03/23 01:57:23;;;;;;;;;;;20.30;48.60;;;;;;1547716;75;673;-70
2024/03/23 01:59:25;;;;;;;;;;;20.40;48.60;;;;;;1540243;76;822;-71
2024/03/23 02:01:27;;;;;;;;;;;20.40;48.60;;;;;;1546392;75;986;-69
2024/03/23 02:03:29;;;;;;;;;;;20.40;48.60;;;;;;1560572;75;864;-69
2024/03/23 02:05:31;;;;;;;;;;;20.40;48.60;;;;;;1546679;75;1147;-68
2024/03/23 02:07:34;;;;;;;;;;;20.30;48.70;;;;;;1551150;76;755;-70
2024/03/23 02:09:36;;;;;;;;;;;20.40;48.70;;;;;;1548958;76;735;-71
2024/03/23 02:11:38;;;;;;;;;;;20.40;48.70;;;;;;1515471;77;1929;-71
2024/03/23 02:13:40;;;;;;;;;;;20.40;48.70;;;;;;1484170;78;765;-72
2024/03/23 02:15:41;;;;;;;;;;;20.40;48.70;;;;;;1492896;78;1149;-71
2024/03/23 02:17:44;;;;;;;;;;;20.40;48.70;;;;;;1512712;77;1042;-71
2024/03/23 02:19:46;;;;;;;;;;;20.40;48.70;;;;;;1513553;77;654;-73
2024/03/23 02:21:48;;;;;;;;;;;20.40;48.80;;;;;;1511011;77;788;-71
2024/03/23 02:23:50;;;;;;;;;;;20.40;48.60;;;;;;1505113;77;804;-68
2024/03/23 02:25:53;;;;;;;;;;;20.40;48.70;;;;;;1478719;79;1130;-70
2024/03/23 02:27:55;;;;;;;;;;;20.30;48.60;;;;;;1495391;78;843;-72
2024/03/23 02:29:57;;;;;;;;;;;20.40;48.60;;;;;;1481895;78;707;-71
2024/03/23 02:31:59;;;;;;;;;;;20.40;48.60;;;;;;1489926;78;1983;-71
2024/03/23 02:34:03;;;;;;;;;;;20.30;48.60;;;;;;1493206;78;791;-71
2024/03/23 02:36:05;;;;;;;;;;;20.40;48.70;;;;;;1487396;78;783;-72
2024/03/23 02:38:07;;;;;;;;;;;20.40;48.70;;;;;;1490350;78;799;-70
2024/03/23 02:40:09;;;;;;;;;;;20.40;48.70;;;;;;1500292;78;799;-71
2024/03/23 02:42:11;;;;;;;;;;;20.30;48.60;;;;;;1492962;78;743;-72
2024/03/23 02:44:13;;;;;;;;;;;20.30;48.70;;;;;;1496657;78;1150;-72
2024/03/23 02:46:15;;;;;;;;;;;20.30;48.70;;;;;;1490149;78;716;-73
2024/03/23 02:48:17;;;;;;;;;;;20.40;48.70;;;;;;1482729;78;799;-71
2024/03/23 02:50:19;;;;;;;;;;;20.30;48.70;;;;;;1501148;78;695;-71
2024/03/23 02:52:21;;;;;;;;;;;20.40;48.70;;;;;;1495679;78;1943;-71
2024/03/23 02:54:23;;;;;;;;;;;20.30;48.70;;;;;;1488091;78;1158;-72
2024/03/23 02:56:25;;;;;;;;;;;20.40;48.70;;;;;;1497977;78;801;-71
2024/03/23 02:58:27;;;;;;;;;;;20.30;48.70;;;;;;1484978;78;786;-71
2024/03/23 03:00:29;;;;;;;;;;;20.30;48.80;;;;;;1475997;78;719;-73
2024/03/23 03:02:31;;;;;;;;;;;20.30;48.80;;;;;;1495495;79;738;-70
2024/03/23 03:04:33;;;;;;;;;;;20.40;48.80;;;;;;1494212;78;1140;-70
2024/03/23 03:06:34;;;;;;;;;;;20.30;48.90;;;;;;1490533;78;721;-71
2024/03/23 03:08:36;;;;;;;;;;;20.40;48.90;;;;;;1498376;78;740;-72
2024/03/23 03:10:38;;;;;;;;;;;20.40;48.90;;;;;;1503923;78;757;-71
2024/03/23 03:12:40;;;;;;;;;;;20.30;48.90;;;;;;1485477;78;1930;-70
2024/03/23 03:14:42;;;;;;;;;;;20.30;48.90;;;;;;1495835;78;1176;-71
2024/03/23 03:16:44;;;;;;;;;;;20.40;48.90;;;;;;1498250;78;771;-70
2024/03/23 03:18:46;;;;;;;;;;;20.40;48.90;;;;;;1480829;78;828;-74
2024/03/23 03:20:49;;;;;;;;;;;20.40;48.90;;;;;;1555307;75;770;-70
2024/03/23 03:22:53;;;;;;;;;;;20.40;48.80;;;;;;1535677;75;716;-71
2024/03/23 03:24:54;;;;;;;;;;;20.30;48.90;;;;;;1551493;75;1983;-71
2024/03/23 03:26:58;;;;;;;;;;;20.30;48.90;;;;;;1545970;75;750;-70
2024/03/23 03:29:00;;;;;;;;;;;20.40;48.90;;;;;;1546701;75;698;-71
2024/03/23 03:31:02;;;;;;;;;;;20.30;48.90;;;;;;1558963;75;1916;-69
2024/03/23 03:33:04;;;;;;;;;;;20.40;48.80;;;;;;1538935;76;772;-71
2024/03/23 03:35:06;;;;;;;;;;;20.40;48.90;;;;;;1545439;75;1127;-73
2024/03/23 03:37:08;;;;;;;;;;;20.40;48.80;;;;;;1552622;75;753;-71
2024/03/23 03:39:10;;;;;;;;;;;20.40;48.90;;;;;;1552738;76;717;-71
2024/03/23 03:41:11;;;;;;;;;;;20.30;48.80;;;;;;1539443;76;604;-70
2024/03/23 03:43:13;;;;;;;;;;;20.40;48.90;;;;;;1553013;75;660;-69
2024/03/23 03:45:15;;;;;;;;;;;20.40;48.80;;;;;;1557227;75;1225;-70
2024/03/23 03:47:17;;;;;;;;;;;20.40;48.80;;;;;;1545289;75;654;-69
2024/03/23 03:49:19;;;;;;;;;;;20.40;48.80;;;;;;1540900;75;822;-70
2024/03/23 03:51:21;;;;;;;;;;;20.40;48.90;;;;;;1556103;75;1932;-69
2024/03/23 03:53:23;;;;;;;;;;;20.30;48.90;;;;;;1548640;76;830;-73
2024/03/23 03:55:25;;;;;;;;;;;20.40;48.90;;;;;;1548761;75;1165;-71
2024/03/23 03:57:26;;;;;;;;;;;20.30;48.90;;;;;;1559468;76;714;-72
2024/03/23 03:59:28;;;;;;;;;;;20.30;48.90;;;;;;1547714;75;749;-71
2024/03/23 04:01:30;;;;;;;;;;;20.40;48.90;;;;;;1548520;76;683;-71
2024/03/23 04:03:32;;;;;;;;;;;20.40;48.90;;;;;;1547232;75;693;-68
2024/03/23 04:05:34;;;;;;;;;;;20.40;48.90;;;;;;1547245;75;1117;-71
2024/03/23 04:07:36;;;;;;;;;;;20.40;48.90;;;;;;1535822;76;773;-72
2024/03/23 04:09:38;;;;;;;;;;;20.40;48.90;;;;;;1536215;75;602;-71
2024/03/23 04:11:39;;;;;;;;;;;20.40;48.80;;;;;;1547267;76;1919;-70
2024/03/23 04:13:41;;;;;;;;;;;20.40;48.90;;;;;;1538893;75;811;-71
2024/03/23 04:15:43;;;;;;;;;;;20.40;48.90;;;;;;1555310;75;1119;-70
2024/03/23 04:17:45;;;;;;;;;;;20.40;48.90;;;;;;1545180;75;843;-71
2024/03/23 04:19:48;;;;;;;;;;;20.40;48.90;;;;;;1534991;75;868;-70
2024/03/23 04:21:50;;;;;;;;;;;20.40;48.90;;;;;;1545921;76;809;-71
2024/03/23 04:23:52;;;;;;;;;;;20.40;48.90;;;;;;1552183;75;886;-72
2024/03/23 04:25:54;;;;;;;;;;;20.30;48.90;;;;;;1546183;75;1106;-71
2024/03/23 04:27:56;;;;;;;;;;;20.40;48.90;;;;;;1551263;75;788;-69
2024/03/23 04:29:58;;;;;;;;;;;20.40;48.90;;;;;;1551446;75;738;-71
2024/03/23 04:32:01;;;;;;;;;;;20.40;48.90;;;;;;1537201;76;1937;-71
2024/03/23 04:34:03;;;;;;;;;;;20.40;48.90;;;;;;1554438;76;1210;-68
2024/03/23 04:36:07;;;;;;;;;;;20.50;49.00;;;;;;1548013;76;671;-70
2024/03/23 04:38:09;;;;;;;;;;;20.30;48.90;;;;;;1556505;75;769;-72
2024/03/23 04:40:11;;;;;;;;;;;20.50;48.90;;;;;;1543753;75;745;-71
2024/03/23 04:42:15;;;;;;;;;;;20.40;48.90;;;;;;1546653;76;636;-71
2024/03/23 04:44:16;;;;;;;;;;;20.40;48.90;;;;;;1556944;76;1126;-72
2024/03/23 04:46:18;;;;;;;;;;;20.40;49.00;;;;;;1545275;76;792;-72
2024/03/23 04:48:25;;;;;;;;;;;20.30;49.00;;;;;;1555774;75;792;-70
2024/03/23 04:50:27;;;;;;;;;;;20.40;49.00;;;;;;1549991;75;616;-72
2024/03/23 04:52:29;;;;;;;;;;;20.40;49.00;;;;;;1553216;75;1943;-70
2024/03/23 04:54:32;;;;;;;;;;;20.40;49.00;;;;;;1542321;75;1190;-70
2024/03/23 04:56:34;;;;;;;;;;;20.40;49.00;;;;;;1546927;76;764;-71
2024/03/23 04:58:36;;;;;;;;;;;20.40;49.00;;;;;;1552811;75;828;-71
2024/03/23 05:00:38;;;;;;;;;;;20.40;49.00;;;;;;1551078;76;790;-71
2024/03/23 05:02:39;;;;;;;;;;;20.40;49.00;;;;;;1552666;75;754;-70
2024/03/23 05:04:42;;;;;;;;;;;20.40;49.00;;;;;;1552993;75;1128;-71
2024/03/23 05:06:44;;;;;;;;;;;20.40;48.90;;;;;;1548650;75;726;-71
2024/03/23 05:08:46;;;;;;;;;;;20.40;48.90;;;;;;1561627;75;738;-70
2024/03/23 05:10:48;;;;;;;;;;;20.40;49.00;;;;;;1559181;75;724;-72
2024/03/23 05:12:50;;;;;;;;;;;20.40;49.00;;;;;;1559984;75;1952;-70
2024/03/23 05:14:52;;;;;;;;;;;20.40;48.90;;;;;;1548778;75;1145;-71
2024/03/23 05:16:54;;;;;;;;;;;20.40;49.00;;;;;;1550591;75;771;-69
2024/03/23 05:18:56;;;;;;;;;;;20.40;49.00;;;;;;1558800;75;777;-70
2024/03/23 05:20:58;;;;;;;;;;;20.40;49.00;;;;;;1549523;76;792;-71
2024/03/23 05:23:00;;;;;;;;;;;20.40;49.00;;;;;;1550114;75;750;-71
2024/03/23 05:25:04;;;;;;;;;;;20.40;49.00;;;;;;1555516;76;1097;-70
2024/03/23 05:27:06;;;;;;;;;;;20.30;49.00;;;;;;1554996;75;1649;-70
2024/03/23 05:29:11;;;;;;;;;;;20.40;49.10;;;;;;1555460;75;655;-69
2024/03/23 05:31:11;;;;;;;;;;;20.40;49.10;;;;;;1551688;75;1644;-71
2024/03/23 05:33:13;;;;;;;;;;;20.40;49.10;;;;;;1554977;75;1951;-70
2024/03/23 05:35:15;;;;;;;;;;;20.40;49.20;;;;;;1554045;75;1162;-69
2024/03/23 05:37:17;;;;;;;;;;;20.40;49.20;;;;;;1551361;76;809;-69
2024/03/23 05:39:21;;;;;;;;;;;20.50;49.20;;;;;;1549824;76;764;-69
2024/03/23 05:41:24;;;;;;;;;;;20.40;49.20;;;;;;1555963;76;1674;-70
2024/03/23 05:43:26;;;;;;;;;;;20.40;49.20;;;;;;1547204;75;1035;-71
2024/03/23 05:45:27;;;;;;;;;;;20.40;49.20;;;;;;1543067;75;1144;-70
2024/03/23 05:47:29;;;;;;;;;;;20.40;49.20;;;;;;1545392;75;611;-70
2024/03/23 05:49:31;;;;;;;;;;;20.40;49.20;;;;;;1553322;76;739;-71
2024/03/23 05:51:33;;;;;;;;;;;20.40;49.20;;;;;;1540909;76;690;-68
2024/03/23 05:53:35;;;;;;;;;;;20.40;49.20;;;;;;1556659;75;1964;-72
2024/03/23 05:55:37;;;;;;;;;;;20.50;49.40;;;;;;1554514;75;1150;-72
2024/03/23 05:57:39;;;;;;;;;;;20.50;49.40;;;;;;1557914;75;819;-69
2024/03/23 05:59:41;;;;;;;;;;;20.40;49.30;;;;;;1555922;75;830;-69
2024/03/23 06:01:43;;;;;;;;;;;20.40;49.30;;;;;;1556032;75;713;-71
2024/03/23 06:03:45;;;;;;;;;;;20.50;49.40;;;;;;1559322;75;714;-70
2024/03/23 06:05:47;;;;;;;;;;;20.40;49.30;;;;;;1558947;75;1155;-69
2024/03/23 06:07:49;;;;;;;;;;;20.50;49.40;;;;;;1545219;76;701;-71
2024/03/23 06:09:51;;;;;;;;;;;20.50;49.40;;;;;;1548821;75;716;-70
2024/03/23 06:11:53;;;;;;;;;;;20.40;49.40;;;;;;1553717;76;791;-69
2024/03/23 06:13:55;;;;;;;;;;;20.50;49.50;;;;;;1547780;75;749;-71
2024/03/23 06:15:58;;;;;;;;;;;20.50;49.40;;;;;;1513895;77;1099;-71
2024/03/23 06:18:00;;;;;;;;;;;20.40;49.40;;;;;;1478442;78;715;-70
2024/03/23 06:20:02;;;;;;;;;;;20.40;49.40;;;;;;1485424;78;760;-69
2024/03/23 06:22:06;;;;;;;;;;;20.50;49.50;;;;;;1488572;78;664;-70
2024/03/23 06:24:07;;;;;;;;;;;20.40;49.40;;;;;;1486956;78;1586;-70
2024/03/23 06:26:09;;;;;;;;;;;20.40;49.40;;;;;;1510989;77;763;-72
2024/03/23 06:28:11;;;;;;;;;;;20.40;49.40;;;;;;1508384;77;733;-72
2024/03/23 06:30:13;;;;;;;;;;;20.50;49.50;;;;;;1516558;77;656;-69
2024/03/23 06:32:15;;;;;;;;;;;20.40;49.40;;;;;;1517257;77;1934;-70
2024/03/23 06:34:17;;;;;;;;;;;20.50;49.60;;;;;;1514048;77;1141;-71
2024/03/23 06:36:19;;;;;;;;;;;20.40;49.50;;;;;;1516146;77;956;-70
2024/03/23 06:38:21;;;;;;;;;;;20.40;49.60;;;;;;1518110;77;764;-70
2024/03/23 06:40:24;;;;;;;;;;;20.40;49.60;;;;;;1512068;77;702;-70
2024/03/23 06:42:26;;;;;;;;;;;20.50;49.70;;;;;;1489785;78;867;-71
2024/03/23 06:44:27;;;;;;;;;;;20.50;49.70;;;;;;1485971;78;1142;-73
2024/03/23 06:46:29;;;;;;;;;;;20.50;49.70;;;;;;1551056;76;670;-70
2024/03/23 06:48:31;;;;;;;;;;;20.40;49.70;;;;;;1541511;75;797;-71
2024/03/23 06:50:33;;;;;;;;;;;20.50;49.80;;;;;;1548585;75;819;-70
2024/03/23 06:52:35;;;;;;;;;;;20.50;49.80;;;;;;1541246;75;1940;-70
2024/03/23 06:54:37;;;;;;;;;;;20.40;49.70;;;;;;1563623;75;1156;-70
2024/03/23 06:56:39;;;;;;;;;;;20.50;49.80;;;;;;1555952;75;729;-70
2024/03/23 06:58:40;;;;;;;;;;;20.50;49.90;;;;;;1549204;75;845;-72
2024/03/23 07:00:42;;;;;;;;;;;20.50;50.00;;;;;;1555476;75;703;-69
2024/03/23 07:02:44;;;;;;;;;;;20.50;49.90;;;;;;1545818;75;753;-72
2024/03/23 07:04:46;;;;;;;;;;;20.50;49.90;;;;;;1559598;76;1196;-70
2024/03/23 07:06:48;;;;;;;;;;;20.50;49.90;;;;;;1541255;75;694;-69
2024/03/23 07:08:50;;;;;;;;;;;20.50;50.00;;;;;;1547875;75;1099;-70
2024/03/23 07:10:52;;;;;;;;;;;20.60;50.00;;;;;;1549400;75;795;-71
2024/03/23 07:12:54;;;;;;;;;;;20.50;50.00;;;;;;1548335;75;1925;-73
2024/03/23 07:14:56;;;;;;;;;;;20.50;50.00;;;;;;1560394;75;1154;-72
2024/03/23 07:16:58;;;;;;;;;;;20.50;50.10;;;;;;1550862;75;698;-72
2024/03/23 07:18:59;;;;;;;;;;;20.50;50.10;;;;;;1547790;76;710;-73
2024/03/23 07:21:01;;;;;;;;;;;20.50;50.20;;;;;;1549998;76;762;-74
2024/03/23 07:23:03;;;;;;;;;;;20.50;50.20;;;;;;1539178;75;743;-73
2024/03/23 07:25:06;;;;;;;;;;;20.50;50.30;;;;;;1550231;75;1126;-73
2024/03/23 07:27:12;;;;;;;;;;;20.50;50.20;;;;;;1550390;75;811;-72
2024/03/23 07:29:11;;;;;;;;;;;20.60;50.20;;;;;;1549654;76;1150;-73
2024/03/23 07:31:14;;;;;;;;;;;20.50;50.30;;;;;;1549080;76;732;-74
2024/03/23 07:33:16;;;;;;;;;;;20.60;50.20;;;;;;1554132;75;1914;-73
2024/03/23 07:35:18;;;;;;;;;;;20.50;50.20;;;;;;1548493;76;1150;-73
2024/03/23 07:37:20;;;;;;;;;;;20.50;50.30;;;;;;1552807;75;733;-74
2024/03/23 07:39:22;;;;;;;;;;;20.50;50.30;;;;;;1547332;75;733;-69
2024/03/23 07:41:23;;;;;;;;;;;20.50;50.30;;;;;;1553320;76;753;-66
2024/03/23 07:43:25;;;;;;;;;;;20.60;50.40;;;;;;1545569;75;802;-71
2024/03/23 07:45:27;;;;;;;;;;;20.50;50.50;;;;;;1554807;75;1129;-68
2024/03/23 07:47:29;;;;;;;;;;;20.50;50.50;;;;;;1555631;75;677;-70
2024/03/23 07:49:31;;;;;;;;;;;20.60;50.40;;;;;;1551816;75;793;-67
2024/03/23 07:51:34;;;;;;;;;;;20.50;50.40;;;;;;1546661;76;800;-68
2024/03/23 07:53:37;;;;;;;;;;;20.60;50.40;;;;;;1552687;75;1934;-69
2024/03/23 07:55:39;;;;;;;;;;;20.60;50.40;;;;;;1551194;75;1139;-66
2024/03/23 07:57:40;;;;;;;;;;;20.50;50.30;;;;;;1563520;75;749;-69
2024/03/23 07:59:42;;;;;;;;;;;20.60;50.30;;;;;;1544066;75;676;-69
2024/03/23 08:01:44;;;;;;;;;;;20.60;50.30;;;;;;1551859;75;760;-72
2024/03/23 08:03:46;;;;;;;;;;;20.60;50.60;;;;;;1551181;75;595;-72
2024/03/23 08:05:48;;;;;;;;;;;20.60;49.50;;;;;;1557014;75;1151;-69
2024/03/23 08:07:51;;;;;;;;;;;20.60;49.00;;;;;;1533579;75;716;-70
2024/03/23 08:09:52;;;;;;;;;;;20.50;48.90;;;;;;1556080;75;780;-70
2024/03/23 08:11:54;;;;;;;;;;;20.50;49.40;;;;;;1547430;76;783;-73
2024/03/23 08:13:56;;;;;;;;;;;20.50;49.50;;;;;;1553932;75;1938;-69
2024/03/23 08:15:58;;;;;;;;;;;20.50;48.90;;;;;;1549810;75;1084;-70
2024/03/23 08:18:00;;;;;;;;;;;20.50;48.20;;;;;;1549359;75;910;-69
2024/03/23 08:20:03;;;;;;;;;;;20.40;47.60;;;;;;1551875;75;831;-73
2024/03/23 08:22:05;;;;;;;;;;;20.40;47.10;;;;;;1549751;75;790;-69
2024/03/23 08:24:07;;;;;;;;;;;20.30;46.90;;;;;;1542687;76;1110;-70
2024/03/23 08:26:09;;;;;;;;;;;20.20;46.30;;;;;;1540731;75;738;-68
2024/03/23 08:28:11;;;;;;;;;;;20.20;46.20;;;;;;1536757;75;732;-69
2024/03/23 08:30:13;;;;;;;;;;;20.20;46.20;;;;;;1550618;76;670;-71
2024/03/23 08:32:16;;;;;;;;;;;20.10;46.10;;;;;;1538674;76;689;-68
2024/03/23 08:34:18;;;;;;;;;;;20.10;45.60;;;;;;1545320;75;1934;-69
2024/03/23 08:36:20;;;;;;;;;;;20.10;45.40;;;;;;1542172;75;760;-71
2024/03/23 08:38:24;;;;;;;;;;;20.00;45.20;;;;;;1536792;75;864;-73
2024/03/23 08:40:26;;;;;;;;;;;20.00;45.60;;;;;;1552229;75;1066;-69
2024/03/23 08:42:27;;;;;;;;;;;19.90;45.70;;;;;;1550403;75;719;-68
2024/03/23 08:44:29;;;;;;;;;;;20.00;45.70;;;;;;1551148;75;1134;-73
2024/03/23 08:46:31;;;;;;;;;;;19.90;45.70;;;;;;1556199;75;828;-67
2024/03/23 08:48:34;;;;;;;;;;;19.90;45.50;;;;;;1551279;75;803;-66
2024/03/23 08:50:36;;;;;;;;;;;19.90;45.60;;;;;;1552156;75;822;-66
2024/03/23 08:52:38;;;;;;;;;;;19.90;45.40;;;;;;1555111;75;715;-66
2024/03/23 08:54:40;;;;;;;;;;;19.90;45.70;;;;;;1545885;75;1932;-68
2024/03/23 08:56:42;;;;;;;;;;;19.90;46.00;;;;;;1547377;75;726;-65
2024/03/23 08:58:44;;;;;;;;;;;19.90;46.00;;;;;;1549525;75;723;-71
2024/03/23 09:00:46;;;;;;;;;;;19.80;43.70;;;;;;1550285;75;810;-64
2024/03/23 09:02:48;;;;;;;;;;;19.60;44.00;;;;;;1547449;75;875;-67
2024/03/23 09:04:50;;;;;;;;;;;19.40;44.70;;;;;;1548258;76;1119;-68
2024/03/23 09:06:52;;;;;;;;;;;19.40;45.60;;;;;;1548643;76;781;-70
2024/03/23 09:08:54;;;;;;;;;;;19.30;46.10;;;;;;1539413;75;754;-69
2024/03/23 09:10:56;;;;;;;;;;;19.30;46.40;;;;;;1548556;76;736;-69
2024/03/23 09:12:58;;;;;;;;;;;19.30;46.70;;;;;;1553727;75;706;-67
2024/03/23 09:15:00;;;;;;;;;;;19.30;46.90;;;;;;1539809;76;1198;-70
2024/03/23 09:17:01;;;;;;;;;;;19.40;47.20;;;;;;1541837;76;711;-70
2024/03/23 09:19:03;;;;;;;;;;;19.40;47.30;;;;;;1534887;76;758;-69
2024/03/23 09:21:07;;;;;;;;;;;19.40;47.40;;;;;;1545808;75;741;-70
2024/03/23 09:23:09;;;;;;;;;;;19.50;47.60;;;;;;1543719;76;1568;-68
2024/03/23 09:25:11;;;;;;;;;;;19.50;47.70;;;;;;1553376;76;1145;-68
2024/03/23 09:27:13;;;;;;;;;;;19.50;47.80;;;;;;1540335;76;719;-68
2024/03/23 09:29:15;;;;;;;;;;;19.60;47.90;;;;;;1552906;76;807;-68
2024/03/23 09:31:17;;;;;;;;;;;19.60;47.90;;;;;;1544013;75;746;-69
2024/03/23 09:33:18;;;;;;;;;;;19.60;47.90;;;;;;1547141;76;1917;-71
2024/03/23 09:35:20;;;;;;;;;;;19.60;48.00;;;;;;1541819;76;1181;-68
2024/03/23 09:37:22;;;;;;;;;;;19.70;48.10;;;;;;1546033;76;718;-67
2024/03/23 09:39:24;;;;;;;;;;;19.70;48.20;;;;;;1546825;76;898;-68
2024/03/23 09:41:26;;;;;;;;;;;19.70;48.30;;;;;;1540040;76;1044;-70
2024/03/23 09:43:28;;;;;;;;;;;19.70;48.30;;;;;;1541176;75;788;-67
2024/03/23 09:45:30;;;;;;;;;;;19.80;48.30;;;;;;1530667;76;1166;-70
2024/03/23 09:47:32;;;;;;;;;;;19.80;48.40;;;;;;1542334;76;815;-68
2024/03/23 09:49:36;;;;;;;;;;;19.80;48.40;;;;;;1545501;76;693;-66
2024/03/23 09:51:38;;;;;;;;;;;19.80;48.40;;;;;;1548173;76;816;-68
2024/03/23 09:53:39;;;;;;;;;;;19.80;48.40;;;;;;1555735;76;1926;-67
2024/03/23 09:55:42;;;;;;;;;;;19.80;48.40;;;;;;1551780;76;1130;-69
2024/03/23 09:57:44;;;;;;;;;;;19.90;48.50;;;;;;1546960;76;665;-68
2024/03/23 09:59:46;;;;;;;;;;;19.90;48.60;;;;;;1541488;76;797;-68
2024/03/23 10:01:48;;;;;;;;;;;19.90;48.60;;;;;;1541993;76;704;-67
2024/03/23 10:03:49;;;;;;;;;;;19.90;48.60;;;;;;1551998;75;779;-67
2024/03/23 10:06:01;;;;;;;;;;;19.90;48.60;;;;;;1557073;75;1074;-69
2024/03/23 10:08:17;;;;;;;;;;;20.00;48.60;;;;;;1541068;75;566;-69
2024/03/23 10:10:21;;;;;;;;;;;19.90;48.60;;;;;;1543396;75;728;-68
2024/03/23 10:12:23;;;;;;;;;;;20.00;48.70;;;;;;1540564;75;735;-67
2024/03/23 10:14:31;;;;;;;;;;;20.00;48.60;;;;;;1551648;76;1919;-68
2024/03/23 10:16:33;;;;;;;;;;;20.00;48.60;;;;;;1544596;75;735;-68
2024/03/23 10:18:36;;;;;;;;;;;20.00;48.70;;;;;;1553496;76;723;-68
2024/03/23 10:20:38;;;;;;;;;;;20.00;48.70;;;;;;1542392;76;1812;-67
2024/03/23 10:22:40;;;;;;;;;;;20.00;48.70;;;;;;1550914;76;700;-66
2024/03/23 10:24:42;;;;;;;;;;;20.10;48.90;;;;;;1534814;76;1157;-68
2024/03/23 10:26:44;;;;;;;;;;;20.10;48.90;;;;;;1544007;76;716;-66
2024/03/23 10:29:00;;;;;;;;;;;20.10;48.90;;;;;;1536825;75;828;-66
2024/03/23 10:31:03;;;;;;;;;;;20.10;48.90;;;;;;1549021;75;2190;-67
2024/03/23 10:33:10;;;;;;;;;;;20.10;48.90;;;;;;1554166;76;732;-70
2024/03/23 10:35:18;;;;;;;;;;;20.20;49.00;;;;;;1553641;76;1943;-68
2024/03/23 10:37:20;;;;;;;;;;;20.00;48.80;;;;;;1552979;76;1754;-69
2024/03/23 10:39:22;;;;;;;;;;;20.10;49.00;;;;;;1550029;75;737;-70
2024/03/23 10:41:24;;;;;;;;;;;20.10;49.00;;;;;;1555879;75;852;-67
2024/03/23 10:43:25;;;;;;;;;;;20.10;49.00;;;;;;1517259;77;982;-69
2024/03/23 10:45:27;;;;;;;;;;;20.20;49.00;;;;;;1556673;75;1126;-67
2024/03/23 10:47:29;;;;;;;;;;;20.20;49.00;;;;;;1537953;76;673;-69
2024/03/23 10:49:32;;;;;;;;;;;20.10;49.00;;;;;;1547772;76;729;-67
2024/03/23 10:51:35;;;;;;;;;;;20.20;49.00;;;;;;1546057;75;874;-68
2024/03/23 10:53:37;;;;;;;;;;;20.10;49.00;;;;;;1553126;76;1932;-70
2024/03/23 10:55:39;;;;;;;;;;;20.10;49.00;;;;;;1556319;75;1131;-67
2024/03/23 10:57:42;;;;;;;;;;;20.20;49.00;;;;;;1542860;75;679;-68
2024/03/23 10:59:44;;;;;;;;;;;20.20;49.00;;;;;;1535101;75;618;-69
2024/03/23 11:01:56;;;;;;;;;;;20.20;49.00;;;;;;1541893;75;750;-69
2024/03/23 11:03:57;;;;;;;;;;;20.10;49.00;;;;;;1560439;76;761;-69
2024/03/23 11:06:00;;;;;;;;;;;20.20;49.00;;;;;;1553036;76;1105;-68
2024/03/23 11:08:02;;;;;;;;;;;20.20;49.00;;;;;;1555145;76;768;-69
2024/03/23 11:10:04;;;;;;;;;;;20.20;49.00;;;;;;1542766;76;860;-67
2024/03/23 11:12:31;;;;;;;;;;;20.20;49.00;;;;;;1517639;77;1174;-66
2024/03/23 11:14:31;;;;;;;;;;;20.20;49.00;;;;;;1542718;76;1920;-67
2024/03/23 11:16:36;;;;;;;;;;;20.20;49.00;;;;;;1519273;77;1402;-66
2024/03/23 11:18:37;;;;;;;;;;;20.20;49.00;;;;;;1488587;79;1698;-67
2024/03/23 11:20:39;;;;;;;;;;;20.20;49.00;;;;;;1491330;79;702;-70
2024/03/23 11:22:51;;;;;;;;;;;20.20;49.00;;;;;;1489522;78;839;-67
2024/03/23 11:24:52;;;;;;;;;;;20.20;49.00;;;;;;1490422;77;1645;-66
2024/03/23 11:26:54;;;;;;;;;;;20.20;49.00;;;;;;1484599;79;885;-68
2024/03/23 11:29:11;;;;;;;;;;;20.20;49.00;;;;;;1515511;77;749;-69
2024/03/23 11:31:13;;;;;;;;;;;20.20;49.00;;;;;;1496741;79;739;-68
2024/03/23 11:33:15;;;;;;;;;;;20.20;49.00;;;;;;1460994;80;796;-68
2024/03/23 11:35:30;;;;;;;;;;;20.20;49.00;;;;;;1543339;76;1932;-67
2024/03/23 11:37:32;;;;;;;;;;;20.20;49.00;;;;;;1541120;76;722;-70
2024/03/23 11:39:34;;;;;;;;;;;20.20;48.90;;;;;;1539825;76;588;-67
2024/03/23 11:41:36;;;;;;;;;;;20.20;49.00;;;;;;1538157;76;734;-67
2024/03/23 11:43:37;;;;;;;;;;;20.20;49.00;;;;;;1547579;76;698;-69
2024/03/23 11:45:40;;;;;;;;;;;20.20;49.00;;;;;;1531578;76;1141;-68
2024/03/23 11:47:42;;;;;;;;;;;20.20;49.00;;;;;;1531350;76;775;-66
2024/03/23 11:49:44;;;;;;;;;;;20.20;49.00;;;;;;1540554;76;814;-68
2024/03/23 11:51:46;;;;;;;;;;;20.20;49.00;;;;;;1537578;76;828;-67
2024/03/23 11:53:48;;;;;;;;;;;20.30;49.10;;;;;;1534944;76;1242;-68
2024/03/23 11:55:54;;;;;;;;;;;20.20;48.90;;;;;;1538080;76;1926;-68
2024/03/23 11:57:56;;;;;;;;;;;20.30;49.10;;;;;;1537595;76;735;-68
2024/03/23 11:59:58;;;;;;;;;;;20.20;49.00;;;;;;1535709;76;678;-68
2024/03/23 12:02:00;;;;;;;;;;;20.30;49.10;;;;;;1545279;76;681;-67
2024/03/23 12:04:02;;;;;;;;;;;20.20;48.90;;;;;;1528843;76;765;-68
2024/03/23 12:06:05;;;;;;;;;;;20.20;48.90;;;;;;1531566;76;1169;-66
2024/03/23 12:08:23;;;;;;;;;;;20.30;49.00;;;;;;1535836;75;665;-69
2024/03/23 12:10:26;;;;;;;;;;;20.30;49.10;;;;;;1536227;76;745;-70